sensor_id;sensor_type;location;lat;lon;timestamp;pressure;altitude;pressure_sealevel;temperature;humidity
69879;BME280;57161;43.136;24.706;2022-08-19T00:01:33;98743.06;;;23.79;51.32
69879;BME280;57161;43.136;24.706;2022-08-19T00:04:00;98734.16;;;23.71;51.47
69879;BME280;57161;43.136;24.706;2022-08-19T00:06:28;98713.38;;;23.69;51.37
69879;BME280;57161;43.136;24.706;2022-08-19T00:08:55;98745.34;;;23.83;51.28
69879;BME280;57161;43.136;24.706;2022-08-19T00:11:21;98741.19;;;23.86;51.08
69879;BME280;57161;43.136;24.706;2022-08-19T00:13:46;98740.88;;;23.78;50.91
69879;BME280;57161;43.136;24.706;2022-08-19T00:16:14;98742.00;;;23.88;50.99
69879;BME280;57161;43.136;24.706;2022-08-19T00:18:40;98747.63;;;23.86;50.91
69879;BME280;57161;43.136;24.706;2022-08-19T00:21:05;98725.28;;;23.63;51.40
69879;BME280;57161;43.136;24.706;2022-08-19T00:23:34;98736.47;;;23.59;51.59
69879;BME280;57161;43.136;24.706;2022-08-19T00:26:03;98727.84;;;23.57;51.80
69879;BME280;57161;43.136;24.706;2022-08-19T00:28:28;98734.72;;;23.52;51.72
69879;BME280;57161;43.136;24.706;2022-08-19T00:30:54;98734.94;;;23.40;51.93
69879;BME280;57161;43.136;24.706;2022-08-19T00:33:20;98730.91;;;23.45;51.97
69879;BME280;57161;43.136;24.706;2022-08-19T00:35:46;98733.66;;;23.43;52.38
69879;BME280;57161;43.136;24.706;2022-08-19T00:38:12;98737.34;;;23.46;52.25
69879;BME280;57161;43.136;24.706;2022-08-19T00:40:37;98742.09;;;23.41;52.21
69879;BME280;57161;43.136;24.706;2022-08-19T00:43:08;98721.63;;;23.29;52.38
69879;BME280;57161;43.136;24.706;2022-08-19T00:45:34;98734.03;;;23.20;52.94
69879;BME280;57161;43.136;24.706;2022-08-19T00:48:00;98727.34;;;23.13;53.08
69879;BME280;57161;43.136;24.706;2022-08-19T00:50:29;98750.97;;;23.16;53.17
69879;BME280;57161;43.136;24.706;2022-08-19T00:52:55;98753.81;;;23.16;53.54
69879;BME280;57161;43.136;24.706;2022-08-19T00:55:24;98742.41;;;23.16;53.26
69879;BME280;57161;43.136;24.706;2022-08-19T00:57:55;98734.97;;;23.09;53.38
69879;BME280;57161;43.136;24.706;2022-08-19T01:00:22;98737.28;;;23.12;53.51
69879;BME280;57161;43.136;24.706;2022-08-19T01:02:48;98727.06;;;23.07;53.58
69879;BME280;57161;43.136;24.706;2022-08-19T01:05:19;98755.84;;;23.29;53.37
69879;BME280;57161;43.136;24.706;2022-08-19T01:07:47;98717.25;;;22.94;53.17
69879;BME280;57161;43.136;24.706;2022-08-19T01:10:20;98760.69;;;23.26;53.39
69879;BME280;57161;43.136;24.706;2022-08-19T01:12:47;98759.94;;;23.26;53.14
69879;BME280;57161;43.136;24.706;2022-08-19T01:15:16;98741.38;;;23.09;53.19
69879;BME280;57161;43.136;24.706;2022-08-19T01:17:44;98758.94;;;23.19;53.10
69879;BME280;57161;43.136;24.706;2022-08-19T01:20:22;98744.25;;;23.09;53.37
69879;BME280;57161;43.136;24.706;2022-08-19T01:22:51;98765.94;;;23.16;53.30
69879;BME280;57161;43.136;24.706;2022-08-19T01:25:28;98746.47;;;22.95;53.62
69879;BME280;57161;43.136;24.706;2022-08-19T01:27:54;98751.13;;;22.88;53.66
69879;BME280;57161;43.136;24.706;2022-08-19T01:30:31;98747.59;;;22.74;54.01
69879;BME280;57161;43.136;24.706;2022-08-19T01:32:57;98755.13;;;22.67;54.29
69879;BME280;57161;43.136;24.706;2022-08-19T01:35:26;98767.31;;;22.54;55.25
69879;BME280;57161;43.136;24.706;2022-08-19T01:37:57;98774.56;;;22.57;55.22
69879;BME280;57161;43.136;24.706;2022-08-19T01:40:29;98765.66;;;22.49;55.53
69879;BME280;57161;43.136;24.706;2022-08-19T01:42:55;98757.66;;;22.45;55.53
69879;BME280;57161;43.136;24.706;2022-08-19T01:45:23;98752.28;;;22.38;55.69
69879;BME280;57161;43.136;24.706;2022-08-19T01:47:49;98757.88;;;22.36;55.58
69879;BME280;57161;43.136;24.706;2022-08-19T01:50:15;98783.69;;;22.40;55.88
69879;BME280;57161;43.136;24.706;2022-08-19T01:52:42;98776.25;;;22.33;56.31
69879;BME280;57161;43.136;24.706;2022-08-19T01:55:13;98784.78;;;22.33;56.11
69879;BME280;57161;43.136;24.706;2022-08-19T01:57:41;98783.31;;;22.32;56.34
69879;BME280;57161;43.136;24.706;2022-08-19T02:00:11;98760.41;;;22.14;56.46
69879;BME280;57161;43.136;24.706;2022-08-19T02:02:37;98782.63;;;22.17;56.67
69879;BME280;57161;43.136;24.706;2022-08-19T02:05:04;98761.78;;;21.99;56.97
69879;BME280;57161;43.136;24.706;2022-08-19T02:07:30;98726.31;;;21.73;56.73
69879;BME280;57161;43.136;24.706;2022-08-19T02:09:55;98761.34;;;21.91;57.11
69879;BME280;57161;43.136;24.706;2022-08-19T02:12:21;98767.78;;;21.92;57.32
69879;BME280;57161;43.136;24.706;2022-08-19T02:14:47;98758.00;;;21.81;57.60
69879;BME280;57161;43.136;24.706;2022-08-19T02:17:12;98770.53;;;21.90;57.55
69879;BME280;57161;43.136;24.706;2022-08-19T02:19:38;98720.00;;;21.61;57.26
69879;BME280;57161;43.136;24.706;2022-08-19T02:22:04;98776.09;;;22.01;57.10
69879;BME280;57161;43.136;24.706;2022-08-19T02:24:29;98710.09;;;21.62;56.68
69879;BME280;57161;43.136;24.706;2022-08-19T02:26:55;98772.94;;;22.09;56.83
69879;BME280;57161;43.136;24.706;2022-08-19T02:29:21;98776.50;;;22.09;56.90
69879;BME280;57161;43.136;24.706;2022-08-19T02:31:46;98776.94;;;22.17;56.19
69879;BME280;57161;43.136;24.706;2022-08-19T02:34:12;98722.94;;;21.76;55.92
69879;BME280;57161;43.136;24.706;2022-08-19T02:36:37;98771.88;;;22.02;56.27
69879;BME280;57161;43.136;24.706;2022-08-19T02:39:03;98755.75;;;21.93;56.11
69879;BME280;57161;43.136;24.706;2022-08-19T02:41:31;98791.34;;;22.22;56.14
69879;BME280;57161;43.136;24.706;2022-08-19T02:44:00;98768.19;;;22.00;56.53
69879;BME280;57161;43.136;24.706;2022-08-19T02:46:28;98786.31;;;22.06;56.91
69879;BME280;57161;43.136;24.706;2022-08-19T02:48:56;98789.50;;;21.85;57.54
69879;BME280;57161;43.136;24.706;2022-08-19T02:51:28;98786.84;;;21.75;57.86
69879;BME280;57161;43.136;24.706;2022-08-19T02:53:54;98771.41;;;21.65;58.33
69879;BME280;57161;43.136;24.706;2022-08-19T02:56:21;98792.97;;;21.70;58.31
69879;BME280;57161;43.136;24.706;2022-08-19T02:58:47;98787.09;;;21.66;58.62
69879;BME280;57161;43.136;24.706;2022-08-19T03:01:25;98781.59;;;21.56;58.64
69879;BME280;57161;43.136;24.706;2022-08-19T03:03:53;98760.03;;;21.37;58.48
69879;BME280;57161;43.136;24.706;2022-08-19T03:06:19;98787.28;;;21.42;58.63
69879;BME280;57161;43.136;24.706;2022-08-19T03:08:46;98779.28;;;21.39;58.50
69879;BME280;57161;43.136;24.706;2022-08-19T03:11:14;98800.75;;;21.55;58.49
69879;BME280;57161;43.136;24.706;2022-08-19T03:13:40;98783.50;;;21.38;58.43
69879;BME280;57161;43.136;24.706;2022-08-19T03:16:06;98804.97;;;21.54;58.66
69879;BME280;57161;43.136;24.706;2022-08-19T03:18:31;98790.75;;;21.41;58.93
69879;BME280;57161;43.136;24.706;2022-08-19T03:20:57;98802.97;;;21.57;58.79
69879;BME280;57161;43.136;24.706;2022-08-19T03:23:23;98818.03;;;21.60;58.66
69879;BME280;57161;43.136;24.706;2022-08-19T03:25:52;98820.97;;;21.62;58.61
69879;BME280;57161;43.136;24.706;2022-08-19T03:28:19;98816.56;;;21.58;58.78
69879;BME280;57161;43.136;24.706;2022-08-19T03:31:05;98806.25;;;21.51;58.47
69879;BME280;57161;43.136;24.706;2022-08-19T03:33:35;98827.50;;;21.78;58.09
69879;BME280;57161;43.136;24.706;2022-08-19T03:36:07;98820.97;;;21.89;57.57
69879;BME280;57161;43.136;24.706;2022-08-19T03:38:36;98806.34;;;21.81;57.59
69879;BME280;57161;43.136;24.706;2022-08-19T03:41:03;98791.59;;;21.84;57.31
69879;BME280;57161;43.136;24.706;2022-08-19T03:43:28;98799.28;;;21.82;57.10
69879;BME280;57161;43.136;24.706;2022-08-19T03:46:15;98797.81;;;21.81;57.17
69879;BME280;57161;43.136;24.706;2022-08-19T03:48:42;98811.59;;;21.86;57.48
69879;BME280;57161;43.136;24.706;2022-08-19T03:51:19;98821.06;;;21.77;57.84
69879;BME280;57161;43.136;24.706;2022-08-19T03:53:45;98844.06;;;21.81;58.12
69879;BME280;57161;43.136;24.706;2022-08-19T03:56:12;98838.88;;;21.78;58.37
69879;BME280;57161;43.136;24.706;2022-08-19T03:58:39;98841.81;;;21.80;58.35
69879;BME280;57161;43.136;24.706;2022-08-19T04:01:13;98831.41;;;21.71;58.46
69879;BME280;57161;43.136;24.706;2022-08-19T04:03:39;98838.97;;;21.80;58.46
69879;BME280;57161;43.136;24.706;2022-08-19T04:06:11;98831.81;;;21.93;58.40
69879;BME280;57161;43.136;24.706;2022-08-19T04:08:39;98760.75;;;21.38;58.48
69879;BME280;57161;43.136;24.706;2022-08-19T04:11:09;98842.97;;;21.88;58.85
69879;BME280;57161;43.136;24.706;2022-08-19T04:13:35;98815.38;;;21.64;58.89
69879;BME280;57161;43.136;24.706;2022-08-19T04:16:00;98848.13;;;21.78;59.09
69879;BME280;57161;43.136;24.706;2022-08-19T04:18:26;98829.28;;;21.57;59.02
69879;BME280;57161;43.136;24.706;2022-08-19T04:20:51;98844.25;;;21.58;59.42
69879;BME280;57161;43.136;24.706;2022-08-19T04:23:17;98844.25;;;21.58;59.34
69879;BME280;57161;43.136;24.706;2022-08-19T04:25:44;98860.78;;;21.75;59.13
69879;BME280;57161;43.136;24.706;2022-08-19T04:28:11;98862.59;;;21.82;58.98
69879;BME280;57161;43.136;24.706;2022-08-19T04:30:43;98864.78;;;21.84;59.07
69879;BME280;57161;43.136;24.706;2022-08-19T04:33:10;98869.63;;;21.95;58.79
69879;BME280;57161;43.136;24.706;2022-08-19T04:35:38;98853.41;;;21.84;58.59
69879;BME280;57161;43.136;24.706;2022-08-19T04:38:04;98861.41;;;22.01;58.44
69879;BME280;57161;43.136;24.706;2022-08-19T04:40:30;98853.94;;;21.94;58.22
69879;BME280;57161;43.136;24.706;2022-08-19T04:43:14;98861.75;;;22.07;58.37
69879;BME280;57161;43.136;24.706;2022-08-19T04:45:42;98862.19;;;22.15;58.18
69879;BME280;57161;43.136;24.706;2022-08-19T04:48:08;98843.31;;;22.08;58.07
69879;BME280;57161;43.136;24.706;2022-08-19T04:50:33;98839.63;;;22.20;57.79
69879;BME280;57161;43.136;24.706;2022-08-19T04:52:59;98832.66;;;22.23;57.50
69879;BME280;57161;43.136;24.706;2022-08-19T04:55:24;98865.03;;;22.59;57.28
69879;BME280;57161;43.136;24.706;2022-08-19T04:57:54;98853.72;;;22.61;56.58
69879;BME280;57161;43.136;24.706;2022-08-19T05:00:19;98845.69;;;22.71;56.51
69879;BME280;57161;43.136;24.706;2022-08-19T05:02:45;98854.91;;;22.99;55.94
69879;BME280;57161;43.136;24.706;2022-08-19T05:05:10;98851.97;;;23.13;55.34
69879;BME280;57161;43.136;24.706;2022-08-19T05:07:37;98869.19;;;23.46;55.30
69879;BME280;57161;43.136;24.706;2022-08-19T05:10:04;98869.03;;;23.58;55.12
69879;BME280;57161;43.136;24.706;2022-08-19T05:12:30;98869.03;;;23.74;54.66
69879;BME280;57161;43.136;24.706;2022-08-19T05:14:59;98869.09;;;23.91;54.25
69879;BME280;57161;43.136;24.706;2022-08-19T05:17:26;98878.09;;;24.02;54.32
69879;BME280;57161;43.136;24.706;2022-08-19T05:19:52;98866.94;;;24.08;54.29
69879;BME280;57161;43.136;24.706;2022-08-19T05:22:36;98879.06;;;24.24;54.10
69879;BME280;57161;43.136;24.706;2022-08-19T05:25:08;98856.69;;;24.18;54.15
69879;BME280;57161;43.136;24.706;2022-08-19T05:27:34;98869.41;;;24.31;54.38
69879;BME280;57161;43.136;24.706;2022-08-19T05:29:59;98805.13;;;23.97;54.01
69879;BME280;57161;43.136;24.706;2022-08-19T05:32:27;98856.94;;;24.40;53.74
69879;BME280;57161;43.136;24.706;2022-08-19T05:34:53;98822.81;;;24.27;54.06
69879;BME280;57161;43.136;24.706;2022-08-19T05:37:18;98870.91;;;24.68;53.54
69879;BME280;57161;43.136;24.706;2022-08-19T06:34:10;98867.91;;;27.45;47.74
69879;BME280;57161;43.136;24.706;2022-08-19T06:36:43;98854.66;;;27.58;47.40
69879;BME280;57161;43.136;24.706;2022-08-19T06:39:12;98848.59;;;27.72;46.82
69879;BME280;57161;43.136;24.706;2022-08-19T06:41:42;98824.97;;;27.73;46.52
69879;BME280;57161;43.136;24.706;2022-08-19T06:44:09;98850.81;;;27.99;46.19
69879;BME280;57161;43.136;24.706;2022-08-19T06:46:35;98853.53;;;28.21;45.48
69879;BME280;57161;43.136;24.706;2022-08-19T06:49:01;98860.50;;;28.40;44.98
69879;BME280;57161;43.136;24.706;2022-08-19T06:51:27;98851.16;;;28.39;44.22
69879;BME280;57161;43.136;24.706;2022-08-19T06:53:55;98826.22;;;28.20;44.57
69879;BME280;57161;43.136;24.706;2022-08-19T06:56:23;98857.38;;;28.58;44.08
69879;BME280;57161;43.136;24.706;2022-08-19T06:58:50;98868.38;;;28.67;44.16
69879;BME280;57161;43.136;24.706;2022-08-19T07:01:18;98864.94;;;28.73;44.16
69879;BME280;57161;43.136;24.706;2022-08-19T07:03:44;98844.72;;;28.69;43.94
69879;BME280;57161;43.136;24.706;2022-08-19T07:06:14;98862.03;;;29.01;43.50
69879;BME280;57161;43.136;24.706;2022-08-19T07:08:43;98862.06;;;29.03;43.40
69879;BME280;57161;43.136;24.706;2022-08-19T07:11:11;98862.13;;;29.05;43.02
69879;BME280;57161;43.136;24.706;2022-08-19T07:13:38;98860.91;;;29.14;43.00
69879;BME280;57161;43.136;24.706;2022-08-19T07:16:05;98865.47;;;29.27;43.40
69879;BME280;57161;43.136;24.706;2022-08-19T07:18:31;98871.00;;;29.47;42.46
69879;BME280;57161;43.136;24.706;2022-08-19T07:21:12;98861.41;;;29.39;42.40
69879;BME280;57161;43.136;24.706;2022-08-19T07:23:38;98871.78;;;29.50;42.64
69879;BME280;57161;43.136;24.706;2022-08-19T07:26:10;98841.31;;;29.41;42.41
69879;BME280;57161;43.136;24.706;2022-08-19T07:28:36;98848.31;;;29.64;42.07
69879;BME280;57161;43.136;24.706;2022-08-19T07:31:05;98868.56;;;29.70;42.64
69879;BME280;57161;43.136;24.706;2022-08-19T07:33:31;98871.16;;;29.92;41.98
69879;BME280;57161;43.136;24.706;2022-08-19T07:35:58;98860.84;;;29.78;42.20
69879;BME280;57161;43.136;24.706;2022-08-19T07:38:23;98818.16;;;29.67;41.99
69879;BME280;57161;43.136;24.706;2022-08-19T07:40:49;98866.56;;;30.12;41.55
69879;BME280;57161;43.136;24.706;2022-08-19T07:43:16;98828.22;;;30.04;40.97
69879;BME280;57161;43.136;24.706;2022-08-19T07:45:45;98853.28;;;30.35;40.89
69879;BME280;57161;43.136;24.706;2022-08-19T07:48:12;98849.91;;;30.47;40.48
69879;BME280;57161;43.136;24.706;2022-08-19T07:50:37;98841.34;;;30.53;40.87
69879;BME280;57161;43.136;24.706;2022-08-19T07:53:03;98842.34;;;30.68;40.50
69879;BME280;57161;43.136;24.706;2022-08-19T07:55:29;98830.81;;;30.70;40.34
69879;BME280;57161;43.136;24.706;2022-08-19T07:57:54;98826.75;;;30.85;39.93
69879;BME280;57161;43.136;24.706;2022-08-19T08:00:20;98835.63;;;31.01;39.10
69879;BME280;57161;43.136;24.706;2022-08-19T08:02:46;98849.78;;;31.31;39.09
69879;BME280;57161;43.136;24.706;2022-08-19T08:05:11;98847.63;;;31.32;39.21
69879;BME280;57161;43.136;24.706;2022-08-19T08:07:55;98852.69;;;31.33;39.24
69879;BME280;57161;43.136;24.706;2022-08-19T08:10:39;98846.38;;;31.47;39.42
69879;BME280;57161;43.136;24.706;2022-08-19T08:13:05;98826.28;;;31.55;38.28
69879;BME280;57161;43.136;24.706;2022-08-19T08:15:31;98848.25;;;31.79;37.66
69879;BME280;57161;43.136;24.706;2022-08-19T08:17:56;98831.94;;;31.47;37.68
69879;BME280;57161;43.136;24.706;2022-08-19T08:20:23;98840.09;;;31.63;37.70
69879;BME280;57161;43.136;24.706;2022-08-19T08:22:49;98831.50;;;31.69;37.17
69879;BME280;57161;43.136;24.706;2022-08-19T08:25:35;98845.47;;;31.89;36.68
69879;BME280;57161;43.136;24.706;2022-08-19T08:28:02;98838.19;;;31.86;37.05
69879;BME280;57161;43.136;24.706;2022-08-19T08:30:29;98847.09;;;32.06;37.04
69879;BME280;57161;43.136;24.706;2022-08-19T08:32:55;98798.59;;;31.94;36.50
69879;BME280;57161;43.136;24.706;2022-08-19T08:35:23;98844.50;;;32.33;36.38
69879;BME280;57161;43.136;24.706;2022-08-19T08:37:50;98833.00;;;32.39;36.23
69879;BME280;57161;43.136;24.706;2022-08-19T08:40:22;98852.69;;;32.61;36.13
69879;BME280;57161;43.136;24.706;2022-08-19T08:42:58;98847.00;;;32.73;35.43
69879;BME280;57161;43.136;24.706;2022-08-19T08:45:28;98825.13;;;32.51;35.45
69879;BME280;57161;43.136;24.706;2022-08-19T08:47:56;98814.22;;;32.40;35.01
69879;BME280;57161;43.136;24.706;2022-08-19T08:50:41;98839.75;;;32.70;34.83
69879;BME280;57161;43.136;24.706;2022-08-19T08:53:08;98843.47;;;32.82;35.03
69879;BME280;57161;43.136;24.706;2022-08-19T08:55:36;98824.78;;;32.96;33.64
69879;BME280;57161;43.136;24.706;2022-08-19T08:58:05;98821.94;;;33.06;34.14
69879;BME280;57161;43.136;24.706;2022-08-19T09:00:42;98832.19;;;33.31;33.83
69879;BME280;57161;43.136;24.706;2022-08-19T09:03:18;98833.75;;;33.42;33.21
69879;BME280;57161;43.136;24.706;2022-08-19T09:06:04;98819.19;;;33.32;32.81
69879;BME280;57161;43.136;24.706;2022-08-19T09:11:04;98816.34;;;33.36;32.61
69879;BME280;57161;43.136;24.706;2022-08-19T09:13:56;98817.72;;;33.31;32.94
69879;BME280;57161;43.136;24.706;2022-08-19T09:16:28;98816.94;;;33.17;32.92
69879;BME280;57161;43.136;24.706;2022-08-19T09:18:58;98802.44;;;33.06;33.09
69879;BME280;57161;43.136;24.706;2022-08-19T09:21:26;98810.41;;;33.14;32.83
69879;BME280;57161;43.136;24.706;2022-08-19T09:23:52;98787.97;;;33.08;33.12
69879;BME280;57161;43.136;24.706;2022-08-19T09:26:20;98787.25;;;33.10;32.89
69879;BME280;57161;43.136;24.706;2022-08-19T09:28:49;98803.25;;;33.25;32.56
69879;BME280;57161;43.136;24.706;2022-08-19T09:31:18;98823.59;;;33.39;32.25
69879;BME280;57161;43.136;24.706;2022-08-19T09:33:44;98807.66;;;33.36;32.83
69879;BME280;57161;43.136;24.706;2022-08-19T09:36:13;98800.44;;;33.39;32.94
69879;BME280;57161;43.136;24.706;2022-08-19T09:38:39;98807.03;;;33.62;32.88
69879;BME280;57161;43.136;24.706;2022-08-19T09:41:12;98811.38;;;33.63;33.18
69879;BME280;57161;43.136;24.706;2022-08-19T09:43:39;98820.06;;;33.57;32.87
69879;BME280;57161;43.136;24.706;2022-08-19T09:46:06;98789.53;;;33.34;33.34
69879;BME280;57161;43.136;24.706;2022-08-19T09:48:33;98802.69;;;33.59;33.13
69879;BME280;57161;43.136;24.706;2022-08-19T09:51:10;98806.34;;;33.76;32.65
69879;BME280;57161;43.136;24.706;2022-08-19T09:53:37;98809.34;;;34.03;32.96
69879;BME280;57161;43.136;24.706;2022-08-19T09:56:04;98796.31;;;34.14;32.65
69879;BME280;57161;43.136;24.706;2022-08-19T09:58:30;98797.75;;;34.29;32.30
69879;BME280;57161;43.136;24.706;2022-08-19T10:00:57;98792.75;;;34.50;32.41
69879;BME280;57161;43.136;24.706;2022-08-19T10:03:25;98792.69;;;34.74;32.11
69879;BME280;57161;43.136;24.706;2022-08-19T10:05:50;98771.66;;;34.78;31.51
69879;BME280;57161;43.136;24.706;2022-08-19T10:08:18;98771.63;;;34.82;31.26
69879;BME280;57161;43.136;24.706;2022-08-19T10:10:45;98768.72;;;34.96;31.13
69879;BME280;57161;43.136;24.706;2022-08-19T10:13:11;98779.56;;;35.14;30.70
69879;BME280;57161;43.136;24.706;2022-08-19T10:15:37;98780.28;;;35.18;30.95
69879;BME280;57161;43.136;24.706;2022-08-19T10:18:06;98767.31;;;34.91;30.84
69879;BME280;57161;43.136;24.706;2022-08-19T10:20:32;98771.66;;;34.88;31.33
69879;BME280;57161;43.136;24.706;2022-08-19T10:22:58;98763.69;;;34.74;31.27
69879;BME280;57161;43.136;24.706;2022-08-19T10:25:26;98744.09;;;34.77;31.20
69879;BME280;57161;43.136;24.706;2022-08-19T10:27:52;98745.53;;;35.00;31.24
69879;BME280;57161;43.136;24.706;2022-08-19T10:30:18;98766.50;;;35.19;30.86
69879;BME280;57161;43.136;24.706;2022-08-19T10:32:44;98754.19;;;35.06;30.52
69879;BME280;57161;43.136;24.706;2022-08-19T10:35:12;98755.63;;;35.11;30.77
69879;BME280;57161;43.136;24.706;2022-08-19T10:37:38;98754.91;;;35.11;30.60
69879;BME280;57161;43.136;24.706;2022-08-19T10:40:06;98749.06;;;35.19;31.01
69879;BME280;57161;43.136;24.706;2022-08-19T10:42:33;98757.00;;;35.29;30.38
69879;BME280;57161;43.136;24.706;2022-08-19T10:44:59;98760.03;;;35.02;30.34
69879;BME280;57161;43.136;24.706;2022-08-19T10:47:25;98759.31;;;35.00;30.97
69879;BME280;57161;43.136;24.706;2022-08-19T10:49:50;98751.31;;;34.82;30.97
69879;BME280;57161;43.136;24.706;2022-08-19T10:52:35;98759.31;;;34.94;30.79
69879;BME280;57161;43.136;24.706;2022-08-19T10:55:05;98768.00;;;35.04;30.64
69879;BME280;57161;43.136;24.706;2022-08-19T10:57:49;98755.69;;;34.93;30.81
69879;BME280;57161;43.136;24.706;2022-08-19T11:00:15;98750.63;;;34.92;30.17
69879;BME280;57161;43.136;24.706;2022-08-19T11:02:41;98742.59;;;35.04;30.93
69879;BME280;57161;43.136;24.706;2022-08-19T11:05:08;98750.47;;;35.38;30.32
69879;BME280;57161;43.136;24.706;2022-08-19T11:07:36;98731.59;;;35.33;29.84
69879;BME280;57161;43.136;24.706;2022-08-19T11:10:04;98755.47;;;35.54;30.37
69879;BME280;57161;43.136;24.706;2022-08-19T11:12:29;98759.09;;;35.57;29.68
69879;BME280;57161;43.136;24.706;2022-08-19T11:14:55;98739.50;;;35.53;30.00
69879;BME280;57161;43.136;24.706;2022-08-19T11:17:20;98746.63;;;35.74;29.75
69879;BME280;57161;43.136;24.706;2022-08-19T11:19:48;98754.53;;;35.92;28.67
69879;BME280;57161;43.136;24.706;2022-08-19T11:22:14;98722.66;;;35.74;29.36
69879;BME280;57161;43.136;24.706;2022-08-19T11:24:40;98752.38;;;35.91;29.09
69879;BME280;57161;43.136;24.706;2022-08-19T11:27:07;98753.59;;;36.20;29.19
69879;BME280;57161;43.136;24.706;2022-08-19T11:29:35;98742.56;;;36.39;28.81
69879;BME280;57161;43.136;24.706;2022-08-19T11:32:08;98738.25;;;36.34;28.27
69879;BME280;57161;43.136;24.706;2022-08-19T11:34:38;98732.41;;;36.36;28.63
69879;BME280;57161;43.136;24.706;2022-08-19T11:37:05;98726.56;;;36.38;28.95
69879;BME280;57161;43.136;24.706;2022-08-19T11:39:33;98740.31;;;36.44;28.59
69879;BME280;57161;43.136;24.706;2022-08-19T11:42:01;98729.53;;;36.30;29.20
